sensor_id;sensor_type;location;lat;lon;timestamp;noise_LAeq;noise_LA_min;noise_LA_max;noise_LA01;noise_LA95
41704;Laerm;861;48.808;9.006;2022-07-06T00:02:26;34.48;33.25;35.64;;
41704;Laerm;861;48.808;9.006;2022-07-06T00:04:52;34.49;33.14;35.74;;
41704;Laerm;861;48.808;9.006;2022-07-06T00:07:18;34.51;33.06;35.73;;
41704;Laerm;861;48.808;9.006;2022-07-06T00:09:44;34.51;33.38;35.70;;
41704;Laerm;861;48.808;9.006;2022-07-06T00:12:10;34.52;33.14;35.63;;
41704;Laerm;861;48.808;9.006;2022-07-06T00:14:37;34.53;33.31;35.75;;
41704;Laerm;861;48.808;9.006;2022-07-06T00:17:04;34.53;33.28;35.83;;
41704;Laerm;861;48.808;9.006;2022-07-06T00:19:30;34.54;33.19;35.84;;
41704;Laerm;861;48.808;9.006;2022-07-06T00:21:56;34.55;33.23;35.81;;
41704;Laerm;861;48.808;9.006;2022-07-06T00:24:23;34.54;33.28;35.83;;
41704;Laerm;861;48.808;9.006;2022-07-06T00:26:49;34.55;33.29;35.90;;
41704;Laerm;861;48.808;9.006;2022-07-06T00:29:15;34.55;33.36;35.72;;
41704;Laerm;861;48.808;9.006;2022-07-06T00:31:41;34.55;33.17;36.12;;
41704;Laerm;861;48.808;9.006;2022-07-06T00:34:07;34.54;32.65;35.90;;
41704;Laerm;861;48.808;9.006;2022-07-06T00:36:34;34.54;33.28;35.69;;
41704;Laerm;861;48.808;9.006;2022-07-06T00:39:00;34.55;33.28;35.89;;
41704;Laerm;861;48.808;9.006;2022-07-06T00:41:26;34.56;33.40;35.84;;
41704;Laerm;861;48.808;9.006;2022-07-06T00:43:57;34.55;33.27;35.78;;
41704;Laerm;861;48.808;9.006;2022-07-06T00:46:31;34.56;32.91;35.74;;
41704;Laerm;861;48.808;9.006;2022-07-06T00:48:58;34.55;33.19;35.83;;
41704;Laerm;861;48.808;9.006;2022-07-06T00:51:32;34.55;33.27;35.79;;
41704;Laerm;861;48.808;9.006;2022-07-06T00:54:05;34.55;33.08;35.83;;
41704;Laerm;861;48.808;9.006;2022-07-06T00:56:34;34.56;33.30;35.93;;
41704;Laerm;861;48.808;9.006;2022-07-06T00:59:03;34.55;33.29;35.75;;
41704;Laerm;861;48.808;9.006;2022-07-06T01:01:29;34.56;33.31;35.74;;
41704;Laerm;861;48.808;9.006;2022-07-06T01:03:55;34.58;32.98;35.61;;
41704;Laerm;861;48.808;9.006;2022-07-06T01:06:22;34.58;33.26;35.84;;
41704;Laerm;861;48.808;9.006;2022-07-06T01:08:49;34.57;33.17;35.78;;
41704;Laerm;861;48.808;9.006;2022-07-06T01:11:19;34.61;33.16;35.96;;
41704;Laerm;861;48.808;9.006;2022-07-06T01:13:50;34.56;33.21;35.79;;
41704;Laerm;861;48.808;9.006;2022-07-06T01:16:18;34.56;33.26;36.13;;
41704;Laerm;861;48.808;9.006;2022-07-06T01:18:44;34.57;33.24;35.75;;
41704;Laerm;861;48.808;9.006;2022-07-06T01:21:14;34.57;33.21;36.03;;
41704;Laerm;861;48.808;9.006;2022-07-06T01:23:45;34.56;33.10;35.83;;
41704;Laerm;861;48.808;9.006;2022-07-06T01:26:19;34.55;33.30;35.76;;
41704;Laerm;861;48.808;9.006;2022-07-06T01:28:51;34.60;33.22;36.55;;
41704;Laerm;861;48.808;9.006;2022-07-06T01:31:25;34.60;33.31;35.94;;
41704;Laerm;861;48.808;9.006;2022-07-06T01:33:56;34.60;33.29;39.33;;
41704;Laerm;861;48.808;9.006;2022-07-06T01:36:24;34.58;33.40;35.73;;
41704;Laerm;861;48.808;9.006;2022-07-06T01:38:55;34.60;33.25;38.14;;
41704;Laerm;861;48.808;9.006;2022-07-06T01:41:25;34.60;33.25;35.81;;
41704;Laerm;861;48.808;9.006;2022-07-06T01:43:52;34.59;33.21;35.77;;
41704;Laerm;861;48.808;9.006;2022-07-06T01:46:19;34.56;33.24;36.54;;
41704;Laerm;861;48.808;9.006;2022-07-06T01:48:46;34.55;33.41;35.68;;
41704;Laerm;861;48.808;9.006;2022-07-06T01:51:13;34.54;33.15;35.85;;
41704;Laerm;861;48.808;9.006;2022-07-06T01:53:40;34.51;33.20;35.68;;
41704;Laerm;861;48.808;9.006;2022-07-06T01:56:07;34.50;33.23;35.71;;
41704;Laerm;861;48.808;9.006;2022-07-06T01:58:33;34.49;33.33;35.88;;
41704;Laerm;861;48.808;9.006;2022-07-06T02:01:04;34.50;33.09;35.70;;
41704;Laerm;861;48.808;9.006;2022-07-06T02:03:32;34.50;33.00;35.66;;
41704;Laerm;861;48.808;9.006;2022-07-06T02:05:58;34.51;33.15;35.74;;
41704;Laerm;861;48.808;9.006;2022-07-06T02:08:24;34.50;33.25;35.73;;
41704;Laerm;861;48.808;9.006;2022-07-06T02:10:50;34.49;33.19;35.80;;
41704;Laerm;861;48.808;9.006;2022-07-06T02:13:16;34.50;33.17;35.62;;
41704;Laerm;861;48.808;9.006;2022-07-06T02:15:43;34.52;33.11;35.81;;
41704;Laerm;861;48.808;9.006;2022-07-06T02:22:27;34.50;32.97;35.82;;
41704;Laerm;861;48.808;9.006;2022-07-06T02:24:53;34.50;32.98;35.93;;
41704;Laerm;861;48.808;9.006;2022-07-06T02:27:20;34.50;33.20;35.71;;
41704;Laerm;861;48.808;9.006;2022-07-06T02:29:46;34.51;33.10;35.70;;
41704;Laerm;861;48.808;9.006;2022-07-06T02:32:13;34.51;33.19;35.78;;
41704;Laerm;861;48.808;9.006;2022-07-06T02:34:39;34.52;33.33;35.84;;
41704;Laerm;861;48.808;9.006;2022-07-06T02:37:05;34.53;33.23;35.72;;
41704;Laerm;861;48.808;9.006;2022-07-06T02:39:31;34.53;33.22;36.93;;
41704;Laerm;861;48.808;9.006;2022-07-06T02:41:58;34.52;33.16;36.26;;
41704;Laerm;861;48.808;9.006;2022-07-06T02:44:24;34.53;33.22;35.85;;
41704;Laerm;861;48.808;9.006;2022-07-06T02:46:50;34.54;33.21;35.79;;
41704;Laerm;861;48.808;9.006;2022-07-06T02:49:16;34.55;33.36;35.83;;
41704;Laerm;861;48.808;9.006;2022-07-06T02:51:42;34.55;33.27;35.77;;
41704;Laerm;861;48.808;9.006;2022-07-06T02:54:08;34.55;33.14;35.65;;
41704;Laerm;861;48.808;9.006;2022-07-06T02:56:35;34.56;33.18;35.84;;
41704;Laerm;861;48.808;9.006;2022-07-06T02:59:01;34.56;33.30;35.85;;
41704;Laerm;861;48.808;9.006;2022-07-06T03:01:27;34.57;33.28;35.83;;
41704;Laerm;861;48.808;9.006;2022-07-06T03:03:53;34.58;33.18;35.81;;
41704;Laerm;861;48.808;9.006;2022-07-06T03:06:19;34.58;33.33;36.00;;
41704;Laerm;861;48.808;9.006;2022-07-06T03:08:45;34.59;33.33;35.88;;
41704;Laerm;861;48.808;9.006;2022-07-06T03:11:11;34.59;33.31;35.75;;
41704;Laerm;861;48.808;9.006;2022-07-06T03:13:37;34.60;33.26;35.71;;
41704;Laerm;861;48.808;9.006;2022-07-06T03:16:04;34.60;33.21;35.86;;
41704;Laerm;861;48.808;9.006;2022-07-06T03:18:30;34.60;33.18;35.69;;
41704;Laerm;861;48.808;9.006;2022-07-06T03:20:56;34.63;33.37;35.75;;
41704;Laerm;861;48.808;9.006;2022-07-06T03:23:22;34.61;33.24;35.89;;
41704;Laerm;861;48.808;9.006;2022-07-06T03:25:48;34.61;33.13;35.83;;
41704;Laerm;861;48.808;9.006;2022-07-06T03:28:15;34.62;33.43;35.78;;
41704;Laerm;861;48.808;9.006;2022-07-06T03:30:41;34.61;33.25;35.90;;
41704;Laerm;861;48.808;9.006;2022-07-06T03:33:07;34.60;33.22;35.71;;
41704;Laerm;861;48.808;9.006;2022-07-06T03:35:33;34.61;33.17;35.83;;
41704;Laerm;861;48.808;9.006;2022-07-06T03:37:59;34.61;33.11;35.75;;
41704;Laerm;861;48.808;9.006;2022-07-06T03:40:25;34.64;33.43;36.06;;
41704;Laerm;861;48.808;9.006;2022-07-06T03:42:52;34.65;33.30;35.86;;
41704;Laerm;861;48.808;9.006;2022-07-06T03:45:18;34.65;33.35;35.95;;
41704;Laerm;861;48.808;9.006;2022-07-06T03:47:44;34.66;33.49;35.97;;
41704;Laerm;861;48.808;9.006;2022-07-06T03:50:10;34.68;33.27;35.97;;
41704;Laerm;861;48.808;9.006;2022-07-06T03:52:36;34.66;33.34;35.89;;
41704;Laerm;861;48.808;9.006;2022-07-06T03:55:12;34.67;33.34;35.85;;
41704;Laerm;861;48.808;9.006;2022-07-06T03:57:40;34.68;33.24;36.00;;
41704;Laerm;861;48.808;9.006;2022-07-06T04:00:10;34.69;33.33;35.84;;
41704;Laerm;861;48.808;9.006;2022-07-06T04:02:36;34.70;33.27;36.02;;
41704;Laerm;861;48.808;9.006;2022-07-06T04:05:03;34.69;33.53;35.89;;
41704;Laerm;861;48.808;9.006;2022-07-06T04:07:30;34.70;33.43;35.95;;
41704;Laerm;861;48.808;9.006;2022-07-06T04:09:56;34.72;33.43;35.89;;
41704;Laerm;861;48.808;9.006;2022-07-06T04:12:22;34.73;33.50;35.84;;
41704;Laerm;861;48.808;9.006;2022-07-06T04:14:48;34.73;33.32;35.80;;
41704;Laerm;861;48.808;9.006;2022-07-06T04:17:15;34.76;33.42;36.07;;
41704;Laerm;861;48.808;9.006;2022-07-06T04:20:00;34.74;33.29;35.99;;
41704;Laerm;861;48.808;9.006;2022-07-06T04:22:26;34.76;33.32;36.08;;
41704;Laerm;861;48.808;9.006;2022-07-06T04:24:52;34.76;33.58;36.05;;
41704;Laerm;861;48.808;9.006;2022-07-06T04:27:18;34.77;33.47;36.13;;
41704;Laerm;861;48.808;9.006;2022-07-06T04:29:44;34.78;33.51;36.08;;
41704;Laerm;861;48.808;9.006;2022-07-06T04:32:10;34.79;33.25;36.05;;
41704;Laerm;861;48.808;9.006;2022-07-06T04:34:36;34.79;33.37;36.14;;
41704;Laerm;861;48.808;9.006;2022-07-06T04:37:03;34.78;33.54;35.98;;
41704;Laerm;861;48.808;9.006;2022-07-06T04:39:29;34.79;33.68;36.04;;
41704;Laerm;861;48.808;9.006;2022-07-06T04:41:57;34.80;33.46;35.95;;
41704;Laerm;861;48.808;9.006;2022-07-06T04:44:23;34.82;33.51;36.15;;
41704;Laerm;861;48.808;9.006;2022-07-06T04:46:50;34.81;33.47;35.90;;
41704;Laerm;861;48.808;9.006;2022-07-06T04:49:16;34.81;33.26;36.17;;
41704;Laerm;861;48.808;9.006;2022-07-06T04:51:42;34.83;33.53;36.07;;
41704;Laerm;861;48.808;9.006;2022-07-06T04:54:08;34.82;33.24;36.05;;
41704;Laerm;861;48.808;9.006;2022-07-06T04:56:34;34.83;33.54;36.06;;
41704;Laerm;861;48.808;9.006;2022-07-06T04:59:00;34.82;33.58;35.98;;
41704;Laerm;861;48.808;9.006;2022-07-06T05:01:26;34.80;33.49;36.11;;
41704;Laerm;861;48.808;9.006;2022-07-06T05:03:53;34.82;33.45;36.03;;
41704;Laerm;861;48.808;9.006;2022-07-06T05:06:19;34.83;33.53;36.31;;
41704;Laerm;861;48.808;9.006;2022-07-06T05:08:46;34.82;33.61;36.15;;
41704;Laerm;861;48.808;9.006;2022-07-06T05:11:12;34.81;33.62;35.94;;
41704;Laerm;861;48.808;9.006;2022-07-06T05:13:38;34.80;33.52;36.06;;
41704;Laerm;861;48.808;9.006;2022-07-06T05:16:05;34.83;33.32;36.23;;
41704;Laerm;861;48.808;9.006;2022-07-06T05:18:31;34.80;33.58;36.06;;
41704;Laerm;861;48.808;9.006;2022-07-06T05:20:57;34.79;33.36;35.94;;
41704;Laerm;861;48.808;9.006;2022-07-06T05:23:23;34.79;33.45;35.98;;
41704;Laerm;861;48.808;9.006;2022-07-06T05:25:49;34.81;33.71;36.20;;
41704;Laerm;861;48.808;9.006;2022-07-06T05:28:15;34.83;33.55;36.19;;
41704;Laerm;861;48.808;9.006;2022-07-06T05:30:42;34.80;33.50;36.05;;
41704;Laerm;861;48.808;9.006;2022-07-06T05:33:08;34.80;33.22;36.29;;
41704;Laerm;861;48.808;9.006;2022-07-06T05:35:34;34.79;33.34;35.98;;
41704;Laerm;861;48.808;9.006;2022-07-06T05:38:00;34.81;33.57;36.06;;
41704;Laerm;861;48.808;9.006;2022-07-06T05:40:29;34.79;33.59;35.99;;
41704;Laerm;861;48.808;9.006;2022-07-06T05:42:55;34.79;33.48;36.06;;
41704;Laerm;861;48.808;9.006;2022-07-06T05:45:22;34.78;32.75;36.14;;
41704;Laerm;861;48.808;9.006;2022-07-06T05:47:49;34.80;33.54;36.01;;
41704;Laerm;861;48.808;9.006;2022-07-06T05:50:33;34.76;33.25;36.07;;
41704;Laerm;861;48.808;9.006;2022-07-06T05:53:06;34.76;33.49;36.02;;
41704;Laerm;861;48.808;9.006;2022-07-06T05:55:33;34.74;33.54;35.90;;
41704;Laerm;861;48.808;9.006;2022-07-06T05:57:59;34.74;33.24;35.98;;
41704;Laerm;861;48.808;9.006;2022-07-06T06:00:28;34.73;33.41;36.24;;
41704;Laerm;861;48.808;9.006;2022-07-06T06:02:55;34.72;33.44;35.85;;
41704;Laerm;861;48.808;9.006;2022-07-06T06:05:22;34.73;33.27;37.18;;
41704;Laerm;861;48.808;9.006;2022-07-06T06:07:48;34.72;33.41;35.82;;
41704;Laerm;861;48.808;9.006;2022-07-06T06:10:19;34.72;33.46;35.88;;
41704;Laerm;861;48.808;9.006;2022-07-06T06:12:46;34.72;33.32;35.94;;
41704;Laerm;861;48.808;9.006;2022-07-06T06:15:13;34.73;33.12;36.03;;
41704;Laerm;861;48.808;9.006;2022-07-06T06:17:40;34.71;33.50;36.09;;
41704;Laerm;861;48.808;9.006;2022-07-06T06:20:12;34.72;33.49;36.12;;
41704;Laerm;861;48.808;9.006;2022-07-06T06:22:53;34.73;33.42;35.90;;
41704;Laerm;861;48.808;9.006;2022-07-06T06:25:38;34.77;33.47;36.00;;
41704;Laerm;861;48.808;9.006;2022-07-06T06:28:10;34.80;33.54;36.03;;
41704;Laerm;861;48.808;9.006;2022-07-06T06:30:39;34.78;33.48;36.07;;
41704;Laerm;861;48.808;9.006;2022-07-06T06:33:13;34.79;33.36;36.01;;
41704;Laerm;861;48.808;9.006;2022-07-06T06:35:52;34.74;33.51;36.05;;
41704;Laerm;861;48.808;9.006;2022-07-06T06:38:23;34.78;33.55;36.04;;
41704;Laerm;861;48.808;9.006;2022-07-06T06:40:52;34.81;33.58;36.06;;
41704;Laerm;861;48.808;9.006;2022-07-06T06:43:20;34.76;33.38;36.02;;
41704;Laerm;861;48.808;9.006;2022-07-06T06:45:46;34.74;33.51;35.99;;
41704;Laerm;861;48.808;9.006;2022-07-06T06:48:12;34.75;33.39;36.14;;
41704;Laerm;861;48.808;9.006;2022-07-06T06:50:39;34.81;33.36;36.14;;
41704;Laerm;861;48.808;9.006;2022-07-06T06:53:05;34.85;33.52;36.07;;
41704;Laerm;861;48.808;9.006;2022-07-06T06:55:31;34.88;33.65;36.23;;
41704;Laerm;861;48.808;9.006;2022-07-06T06:57:57;34.99;33.76;38.73;;
41704;Laerm;861;48.808;9.006;2022-07-06T07:00:24;34.94;33.64;36.15;;
41704;Laerm;861;48.808;9.006;2022-07-06T07:02:50;34.86;33.47;36.03;;
41704;Laerm;861;48.808;9.006;2022-07-06T07:05:16;34.83;33.59;36.09;;
41704;Laerm;861;48.808;9.006;2022-07-06T07:07:42;34.81;33.58;36.18;;
41704;Laerm;861;48.808;9.006;2022-07-06T07:10:09;34.81;33.50;36.24;;
41704;Laerm;861;48.808;9.006;2022-07-06T07:12:45;34.85;33.66;36.30;;
41704;Laerm;861;48.808;9.006;2022-07-06T07:15:13;34.88;33.72;36.21;;
41704;Laerm;861;48.808;9.006;2022-07-06T07:17:41;34.87;33.63;39.24;;
41704;Laerm;861;48.808;9.006;2022-07-06T07:20:09;34.82;33.66;36.15;;
41704;Laerm;861;48.808;9.006;2022-07-06T07:22:35;34.93;33.74;36.19;;
41704;Laerm;861;48.808;9.006;2022-07-06T07:25:02;34.92;33.66;36.03;;
41704;Laerm;861;48.808;9.006;2022-07-06T07:27:29;34.90;33.52;36.12;;
41704;Laerm;861;48.808;9.006;2022-07-06T07:29:55;34.90;33.60;36.09;;
41704;Laerm;861;48.808;9.006;2022-07-06T07:32:21;34.91;33.58;36.28;;
41704;Laerm;861;48.808;9.006;2022-07-06T07:34:47;35.11;33.85;36.37;;
41704;Laerm;861;48.808;9.006;2022-07-06T07:37:13;35.16;33.73;36.73;;
41704;Laerm;861;48.808;9.006;2022-07-06T07:39:40;35.16;33.96;36.21;;
41704;Laerm;861;48.808;9.006;2022-07-06T07:42:06;35.35;33.75;40.90;;
41704;Laerm;861;48.808;9.006;2022-07-06T07:44:32;35.29;33.89;36.40;;
41704;Laerm;861;48.808;9.006;2022-07-06T07:46:58;35.31;33.98;36.48;;
41704;Laerm;861;48.808;9.006;2022-07-06T07:49:24;35.13;33.75;36.51;;
41704;Laerm;861;48.808;9.006;2022-07-06T07:51:51;35.05;33.75;36.35;;
41704;Laerm;861;48.808;9.006;2022-07-06T07:54:18;35.26;34.05;36.84;;
41704;Laerm;861;48.808;9.006;2022-07-06T07:56:44;35.48;34.05;36.57;;
41704;Laerm;861;48.808;9.006;2022-07-06T07:59:11;35.42;33.97;37.47;;
41704;Laerm;861;48.808;9.006;2022-07-06T08:01:37;35.29;33.89;36.45;;
41704;Laerm;861;48.808;9.006;2022-07-06T08:04:04;35.25;33.93;36.47;;
41704;Laerm;861;48.808;9.006;2022-07-06T08:06:30;35.23;34.04;36.42;;
41704;Laerm;861;48.808;9.006;2022-07-06T08:08:57;35.42;33.91;36.59;;
41704;Laerm;861;48.808;9.006;2022-07-06T08:11:23;35.51;34.41;36.88;;
41704;Laerm;861;48.808;9.006;2022-07-06T08:13:49;35.52;34.19;36.74;;
41704;Laerm;861;48.808;9.006;2022-07-06T08:16:16;35.39;34.04;36.53;;
41704;Laerm;861;48.808;9.006;2022-07-06T08:18:42;35.42;33.82;36.57;;
41704;Laerm;861;48.808;9.006;2022-07-06T08:21:08;35.48;34.06;36.75;;
41704;Laerm;861;48.808;9.006;2022-07-06T08:23:34;35.94;34.36;43.71;;
41704;Laerm;861;48.808;9.006;2022-07-06T08:26:04;35.84;34.49;37.22;;
41704;Laerm;861;48.808;9.006;2022-07-06T08:28:30;35.66;34.30;36.82;;
41704;Laerm;861;48.808;9.006;2022-07-06T08:30:57;35.53;34.02;37.54;;
41704;Laerm;861;48.808;9.006;2022-07-06T08:33:23;35.62;34.39;37.05;;
41704;Laerm;861;48.808;9.006;2022-07-06T08:35:50;36.19;34.55;48.98;;
41704;Laerm;861;48.808;9.006;2022-07-06T08:38:16;35.83;34.57;37.01;;
41704;Laerm;861;48.808;9.006;2022-07-06T08:40:49;35.74;34.52;36.83;;
41704;Laerm;861;48.808;9.006;2022-07-06T08:43:16;35.80;34.16;37.17;;
41704;Laerm;861;48.808;9.006;2022-07-06T08:45:44;35.92;34.70;37.20;;
41704;Laerm;861;48.808;9.006;2022-07-06T08:48:12;35.81;34.51;37.00;;
41704;Laerm;861;48.808;9.006;2022-07-06T08:50:39;35.69;34.03;36.99;;
41704;Laerm;861;48.808;9.006;2022-07-06T08:53:06;36.19;34.94;45.32;;
41704;Laerm;861;48.808;9.006;2022-07-06T08:55:34;35.90;34.62;37.11;;
41704;Laerm;861;48.808;9.006;2022-07-06T08:58:01;36.27;34.81;40.00;;
41704;Laerm;861;48.808;9.006;2022-07-06T09:00:28;36.23;35.02;39.49;;
41704;Laerm;861;48.808;9.006;2022-07-06T09:02:54;36.45;35.16;37.77;;
41704;Laerm;861;48.808;9.006;2022-07-06T09:05:25;36.36;35.09;37.61;;
41704;Laerm;861;48.808;9.006;2022-07-06T09:07:53;36.31;34.95;37.66;;
41704;Laerm;861;48.808;9.006;2022-07-06T09:10:22;36.28;35.07;37.51;;
41704;Laerm;861;48.808;9.006;2022-07-06T09:12:49;36.41;34.93;37.66;;
41704;Laerm;861;48.808;9.006;2022-07-06T09:15:16;36.28;34.88;39.74;;
41704;Laerm;861;48.808;9.006;2022-07-06T09:17:44;36.46;35.18;45.76;;
41704;Laerm;861;48.808;9.006;2022-07-06T09:20:13;36.13;34.84;39.45;;
41704;Laerm;861;48.808;9.006;2022-07-06T09:22:41;36.09;34.69;37.49;;
41704;Laerm;861;48.808;9.006;2022-07-06T09:25:14;36.41;34.80;40.67;;
41704;Laerm;861;48.808;9.006;2022-07-06T09:27:46;36.71;35.30;37.99;;
41704;Laerm;861;48.808;9.006;2022-07-06T09:30:16;36.78;35.43;38.03;;
41704;Laerm;861;48.808;9.006;2022-07-06T09:32:49;36.78;35.38;38.02;;
41704;Laerm;861;48.808;9.006;2022-07-06T09:35:37;36.73;35.34;38.62;;
41704;Laerm;861;48.808;9.006;2022-07-06T09:38:12;37.12;35.35;44.96;;
41704;Laerm;861;48.808;9.006;2022-07-06T09:40:44;37.74;36.15;50.54;;
41704;Laerm;861;48.808;9.006;2022-07-06T09:43:21;37.58;36.32;38.97;;
41704;Laerm;861;48.808;9.006;2022-07-06T09:45:57;37.76;36.47;39.02;;
41704;Laerm;861;48.808;9.006;2022-07-06T09:48:28;37.86;36.76;39.14;;
41704;Laerm;861;48.808;9.006;2022-07-06T09:51:01;37.71;36.47;38.98;;
41704;Laerm;861;48.808;9.006;2022-07-06T09:53:36;37.83;36.29;39.21;;
41704;Laerm;861;48.808;9.006;2022-07-06T09:56:02;37.92;36.28;39.79;;
41704;Laerm;861;48.808;9.006;2022-07-06T09:58:30;37.72;35.96;46.30;;
41704;Laerm;861;48.808;9.006;2022-07-06T10:00:57;37.35;36.03;40.30;;
41704;Laerm;861;48.808;9.006;2022-07-06T10:03:24;37.44;36.11;38.99;;
41704;Laerm;861;48.808;9.006;2022-07-06T10:05:51;37.37;36.15;38.66;;
41704;Laerm;861;48.808;9.006;2022-07-06T10:08:19;37.30;35.67;38.70;;
41704;Laerm;861;48.808;9.006;2022-07-06T10:10:46;37.23;35.82;38.48;;
41704;Laerm;861;48.808;9.006;2022-07-06T10:13:24;37.12;35.76;38.50;;
41704;Laerm;861;48.808;9.006;2022-07-06T10:15:52;37.21;35.66;38.56;;
41704;Laerm;861;48.808;9.006;2022-07-06T10:18:20;37.38;35.90;38.87;;
41704;Laerm;861;48.808;9.006;2022-07-06T10:20:46;37.73;36.07;45.02;;
41704;Laerm;861;48.808;9.006;2022-07-06T10:23:15;37.81;36.24;51.07;;
41704;Laerm;861;48.808;9.006;2022-07-06T10:25:45;37.32;35.88;38.79;;
41704;Laerm;861;48.808;9.006;2022-07-06T10:28:15;37.25;35.74;38.44;;
41704;Laerm;861;48.808;9.006;2022-07-06T10:30:49;37.42;35.41;56.57;;
41704;Laerm;861;48.808;9.006;2022-07-06T10:33:18;36.70;35.22;45.95;;
41704;Laerm;861;48.808;9.006;2022-07-06T10:35:46;36.76;35.43;38.20;;
41704;Laerm;861;48.808;9.006;2022-07-06T10:38:12;36.97;35.47;40.43;;
41704;Laerm;861;48.808;9.006;2022-07-06T10:40:41;36.76;35.21;47.57;;
41704;Laerm;861;48.808;9.006;2022-07-06T10:43:44;36.71;35.21;45.07;;
41704;Laerm;861;48.808;9.006;2022-07-06T10:46:17;36.90;34.69;49.01;;
41704;Laerm;861;48.808;9.006;2022-07-06T10:48:48;36.88;34.93;51.38;;
41704;Laerm;861;48.808;9.006;2022-07-06T10:51:28;36.35;34.64;40.74;;
41704;Laerm;861;48.808;9.006;2022-07-06T10:54:05;36.26;34.86;41.50;;
41704;Laerm;861;48.808;9.006;2022-07-06T10:56:50;36.35;34.82;44.34;;
41704;Laerm;861;48.808;9.006;2022-07-06T10:59:29;36.47;34.95;42.49;;
41704;Laerm;861;48.808;9.006;2022-07-06T11:02:22;36.46;34.98;37.76;;
41704;Laerm;861;48.808;9.006;2022-07-06T11:04:49;36.17;34.64;43.06;;
41704;Laerm;861;48.808;9.006;2022-07-06T11:07:19;36.41;35.00;39.10;;
41704;Laerm;861;48.808;9.006;2022-07-06T11:09:59;36.42;34.91;42.74;;
41704;Laerm;861;48.808;9.006;2022-07-06T11:12:27;36.19;34.71;37.69;;
41704;Laerm;861;48.808;9.006;2022-07-06T11:14:54;35.94;34.44;39.87;;
41704;Laerm;861;48.808;9.006;2022-07-06T11:17:21;35.90;34.53;39.96;;
41704;Laerm;861;48.808;9.006;2022-07-06T11:20:12;36.10;34.48;41.12;;
41704;Laerm;861;48.808;9.006;2022-07-06T11:22:38;36.06;34.27;41.33;;
41704;Laerm;861;48.808;9.006;2022-07-06T11:25:07;36.13;34.63;40.09;;
41704;Laerm;861;48.808;9.006;2022-07-06T11:27:38;36.24;34.75;41.00;;
41704;Laerm;861;48.808;9.006;2022-07-06T11:30:05;36.54;35.01;40.82;;
41704;Laerm;861;48.808;9.006;2022-07-06T11:32:36;36.79;35.37;39.22;;
41704;Laerm;861;48.808;9.006;2022-07-06T11:35:02;37.06;35.56;42.65;;
41704;Laerm;861;48.808;9.006;2022-07-06T11:37:28;36.91;35.08;41.73;;
41704;Laerm;861;48.808;9.006;2022-07-06T11:39:54;36.62;35.22;38.42;;
41704;Laerm;861;48.808;9.006;2022-07-06T11:42:20;36.69;35.40;38.07;;
41704;Laerm;861;48.808;9.006;2022-07-06T11:44:47;36.59;35.00;38.44;;
41704;Laerm;861;48.808;9.006;2022-07-06T11:47:14;37.36;34.78;55.60;;
41704;Laerm;861;48.808;9.006;2022-07-06T11:49:41;36.67;35.19;37.93;;
41704;Laerm;861;48.808;9.006;2022-07-06T11:52:12;37.08;35.68;45.09;;
41704;Laerm;861;48.808;9.006;2022-07-06T11:54:41;37.37;35.89;42.87;;
41704;Laerm;861;48.808;9.006;2022-07-06T11:57:12;37.03;35.54;45.92;;
41704;Laerm;861;48.808;9.006;2022-07-06T11:59:41;36.71;35.43;38.25;;
41704;Laerm;861;48.808;9.006;2022-07-06T12:02:15;36.75;35.18;43.86;;
41704;Laerm;861;48.808;9.006;2022-07-06T12:04:46;36.83;35.19;38.20;;
41704;Laerm;861;48.808;9.006;2022-07-06T12:07:16;36.42;34.36;40.16;;
41704;Laerm;861;48.808;9.006;2022-07-06T12:09:47;36.34;34.45;49.81;;
41704;Laerm;861;48.808;9.006;2022-07-06T12:12:14;36.10;34.48;40.22;;
41704;Laerm;861;48.808;9.006;2022-07-06T12:14:43;36.40;34.77;51.16;;
41704;Laerm;861;48.808;9.006;2022-07-06T12:17:15;36.00;34.34;39.30;;
41704;Laerm;861;48.808;9.006;2022-07-06T12:19:43;35.63;34.33;44.52;;
41704;Laerm;861;48.808;9.006;2022-07-06T12:22:11;36.09;33.96;50.86;;
41704;Laerm;861;48.808;9.006;2022-07-06T12:24:43;35.69;34.22;45.92;;
41704;Laerm;861;48.808;9.006;2022-07-06T12:27:20;35.81;34.24;37.21;;
41704;Laerm;861;48.808;9.006;2022-07-06T12:29:48;36.22;34.76;39.25;;
41704;Laerm;861;48.808;9.006;2022-07-06T12:32:21;36.41;35.04;37.76;;
41704;Laerm;861;48.808;9.006;2022-07-06T12:35:08;36.62;35.13;46.84;;
41704;Laerm;861;48.808;9.006;2022-07-06T12:37:36;36.72;35.30;43.73;;
41704;Laerm;861;48.808;9.006;2022-07-06T12:40:14;37.11;35.72;38.63;;
41704;Laerm;861;48.808;9.006;2022-07-06T12:42:48;37.19;35.70;38.48;;
41704;Laerm;861;48.808;9.006;2022-07-06T12:45:14;37.05;35.58;39.96;;
41704;Laerm;861;48.808;9.006;2022-07-06T12:47:41;36.59;35.13;42.17;;
41704;Laerm;861;48.808;9.006;2022-07-06T12:50:37;36.28;34.85;43.35;;
41704;Laerm;861;48.808;9.006;2022-07-06T12:53:23;36.54;34.52;47.19;;
41704;Laerm;861;48.808;9.006;2022-07-06T12:56:11;35.95;34.46;43.13;;
41704;Laerm;861;48.808;9.006;2022-07-06T12:58:37;35.56;34.29;36.92;;
41704;Laerm;861;48.808;9.006;2022-07-06T13:01:03;35.77;34.36;40.65;;
41704;Laerm;861;48.808;9.006;2022-07-06T13:03:40;35.70;34.28;36.91;;
41704;Laerm;861;48.808;9.006;2022-07-06T13:06:07;35.89;34.47;40.46;;
41704;Laerm;861;48.808;9.006;2022-07-06T13:08:33;35.85;34.38;36.99;;
41704;Laerm;861;48.808;9.006;2022-07-06T13:10:59;35.96;34.63;37.63;;
41704;Laerm;861;48.808;9.006;2022-07-06T13:13:25;36.16;34.44;49.98;;
41704;Laerm;861;48.808;9.006;2022-07-06T13:15:52;36.10;34.43;44.16;;
41704;Laerm;861;48.808;9.006;2022-07-06T13:18:19;36.30;34.58;50.87;;
41704;Laerm;861;48.808;9.006;2022-07-06T13:20:45;36.02;34.55;45.19;;
41704;Laerm;861;48.808;9.006;2022-07-06T13:23:11;36.81;34.35;53.01;;
41704;Laerm;861;48.808;9.006;2022-07-06T13:25:37;35.77;34.36;45.50;;
41704;Laerm;861;48.808;9.006;2022-07-06T13:28:04;35.60;33.99;45.51;;
41704;Laerm;861;48.808;9.006;2022-07-06T13:30:30;35.52;33.95;36.86;;
41704;Laerm;861;48.808;9.006;2022-07-06T13:32:57;35.79;34.38;37.21;;
41704;Laerm;861;48.808;9.006;2022-07-06T13:35:23;35.32;33.92;37.46;;
41704;Laerm;861;48.808;9.006;2022-07-06T13:37:49;35.17;33.56;36.78;;
41704;Laerm;861;48.808;9.006;2022-07-06T13:40:16;35.56;34.08;48.16;;
41704;Laerm;861;48.808;9.006;2022-07-06T13:42:43;36.66;33.63;57.74;;
41704;Laerm;861;48.808;9.006;2022-07-06T13:45:10;35.38;33.86;45.45;;
41704;Laerm;861;48.808;9.006;2022-07-06T13:47:36;35.41;33.80;44.21;;
41704;Laerm;861;48.808;9.006;2022-07-06T13:50:02;35.31;33.88;36.94;;
41704;Laerm;861;48.808;9.006;2022-07-06T13:52:28;35.29;33.82;36.82;;
41704;Laerm;861;48.808;9.006;2022-07-06T13:54:54;35.29;33.95;37.40;;
41704;Laerm;861;48.808;9.006;2022-07-06T13:57:20;35.05;33.52;39.17;;
41704;Laerm;861;48.808;9.006;2022-07-06T13:59:46;34.91;33.21;36.52;;
41704;Laerm;861;48.808;9.006;2022-07-06T14:02:12;34.71;33.37;39.88;;
41704;Laerm;861;48.808;9.006;2022-07-06T14:04:39;34.47;32.94;36.12;;
41704;Laerm;861;48.808;9.006;2022-07-06T14:07:05;34.53;33.04;40.78;;
41704;Laerm;861;48.808;9.006;2022-07-06T14:09:31;34.41;33.04;38.15;;
41704;Laerm;861;48.808;9.006;2022-07-06T14:11:57;34.62;33.32;36.11;;
41704;Laerm;861;48.808;9.006;2022-07-06T14:14:24;35.45;33.20;52.46;;
41704;Laerm;861;48.808;9.006;2022-07-06T14:16:50;35.20;33.27;47.60;;
41704;Laerm;861;48.808;9.006;2022-07-06T14:19:17;34.98;33.34;47.31;;
41704;Laerm;861;48.808;9.006;2022-07-06T14:21:43;34.81;33.11;39.89;;